To NAV CANADA Home Page Login to a new session Search on AWWS site Disclaimer Vers la page française équivalente Tips FAQ What's new on the site To the Forecasts and Observations / NOTAM section To "File a Flight Plan" website Publications and other links Update of the User's profile FIC Telephone Numbers My Weather Data Folder Route Weather Data Regional Weather Data Local Weather Data To the Forecasts and Observations / NOTAM section
Request Generated 11/13/2018 at 18:04:03 UTC . Weather information available at that time is displayed.

METAR/TAF

CHESTERFIELD INLET/NU    

METAR CYCS 131700Z 29012KT 7SM IC DRSN FEW005 FEW050 M27/M30 A3013 RMK SF1SC1 SF TR SLP207=
METAR CYCS 131600Z 29013KT 11SM IC DRSN FEW005 FEW050 M26/M29 A3013 RMK SF1SC1 SLP207=
METAR CYCS 131500Z 31013KT 14SM IC DRSN FEW005 SCT050 M25/M28 A3013 RMK SF1SC2 SLP204=

CYCS - No TAF is issued for this station

Your time UTC time
Weather data provided by Environment Canada and NAV CANADA